Claresholm, Canada
Current Conditions -  °F | °C
As of 11:00 PM on Friday 24 Oct 2014 (Local Time) from CZPC Reporting Station
Overcast Overcast  
Wind Chill: 36°   Ceiling: 16000
Heat Index: 39°   Visibility: 9mi
Dew Point: 30°   Wind: 5mph
Humidity: 70%   Direction: 330°NNW
Pressure: 30.05"   Gusts: NA
Location:  50.03°N, 113.58°W
Report Text: CZPC 250500Z AUTO 33004KT 320V140 9SM OVC160 04/M01 A3005 RMK PRESRR SLP198
Loading
Personal Weather Stations






























Interactive Weather Map
Tropical Storm Tracking
New forecast layout! Learn more

10-Day Weather Forecast

Advertisements
Track Severe Weather on mobile